sensor_id;sensor_type;location;lat;lon;timestamp;P1;durP1;ratioP1;P2;durP2;ratioP2
66523;SDS011;53350;52.210;5.160;2024-03-23T00:53:49;25.08;;;6.60;;
66523;SDS011;53350;52.210;5.160;2024-03-23T00:56:15;24.55;;;6.60;;
66523;SDS011;53350;52.210;5.160;2024-03-23T00:58:41;25.15;;;7.45;;
66523;SDS011;53350;52.210;5.160;2024-03-23T01:01:07;31.75;;;7.80;;
66523;SDS011;53350;52.210;5.160;2024-03-23T01:03:33;30.60;;;7.75;;
66523;SDS011;53350;52.210;5.160;2024-03-23T01:05:59;30.30;;;8.55;;
66523;SDS011;53350;52.210;5.160;2024-03-23T01:08:25;28.60;;;7.03;;
66523;SDS011;53350;52.210;5.160;2024-03-23T01:10:56;26.50;;;7.30;;
66523;SDS011;53350;52.210;5.160;2024-03-23T01:13:22;32.20;;;7.70;;
66523;SDS011;53350;52.210;5.160;2024-03-23T01:15:49;32.65;;;6.30;;
66523;SDS011;53350;52.210;5.160;2024-03-23T01:18:14;28.23;;;7.38;;
66523;SDS011;53350;52.210;5.160;2024-03-23T01:20:41;25.13;;;6.50;;
66523;SDS011;53350;52.210;5.160;2024-03-23T01:23:06;26.92;;;6.28;;
66523;SDS011;53350;52.210;5.160;2024-03-23T01:25:32;25.95;;;6.47;;
66523;SDS011;53350;52.210;5.160;2024-03-23T01:27:59;26.95;;;6.47;;
66523;SDS011;53350;52.210;5.160;2024-03-23T01:30:26;29.20;;;6.22;;
66523;SDS011;53350;52.210;5.160;2024-03-23T01:32:51;26.70;;;6.88;;
66523;SDS011;53350;52.210;5.160;2024-03-23T01:35:18;26.13;;;7.38;;
66523;SDS011;53350;52.210;5.160;2024-03-23T01:37:43;33.53;;;7.03;;
66523;SDS011;53350;52.210;5.160;2024-03-23T01:40:10;26.38;;;7.10;;
66523;SDS011;53350;52.210;5.160;2024-03-23T01:45:07;27.80;;;6.82;;
66523;SDS011;53350;52.210;5.160;2024-03-23T01:47:33;22.20;;;5.50;;
66523;SDS011;53350;52.210;5.160;2024-03-23T01:50:00;23.40;;;6.57;;
66523;SDS011;53350;52.210;5.160;2024-03-23T01:52:26;23.20;;;5.60;;
66523;SDS011;53350;52.210;5.160;2024-03-23T01:54:53;25.63;;;6.70;;
66523;SDS011;53350;52.210;5.160;2024-03-23T01:57:19;27.10;;;7.03;;
66523;SDS011;53350;52.210;5.160;2024-03-23T01:59:45;24.30;;;6.47;;
66523;SDS011;53350;52.210;5.160;2024-03-23T02:02:13;27.00;;;7.28;;
66523;SDS011;53350;52.210;5.160;2024-03-23T02:04:39;26.67;;;6.68;;
66523;SDS011;53350;52.210;5.160;2024-03-23T02:07:05;30.50;;;6.60;;
66523;SDS011;53350;52.210;5.160;2024-03-23T02:09:32;22.52;;;6.57;;
66523;SDS011;53350;52.210;5.160;2024-03-23T02:11:58;25.45;;;6.43;;
66523;SDS011;53350;52.210;5.160;2024-03-23T02:14:24;24.50;;;6.30;;
66523;SDS011;53350;52.210;5.160;2024-03-23T02:16:50;26.88;;;5.95;;
66523;SDS011;53350;52.210;5.160;2024-03-23T02:19:18;28.67;;;5.10;;
66523;SDS011;53350;52.210;5.160;2024-03-23T02:21:43;22.83;;;5.78;;
66523;SDS011;53350;52.210;5.160;2024-03-23T02:24:13;24.15;;;6.45;;
66523;SDS011;53350;52.210;5.160;2024-03-23T02:26:38;23.73;;;4.90;;
66523;SDS011;53350;52.210;5.160;2024-03-23T02:29:04;21.55;;;4.47;;
66523;SDS011;53350;52.210;5.160;2024-03-23T02:31:30;24.42;;;4.57;;
66523;SDS011;53350;52.210;5.160;2024-03-23T02:33:56;23.00;;;4.10;;
66523;SDS011;53350;52.210;5.160;2024-03-23T02:36:22;21.95;;;4.50;;
66523;SDS011;53350;52.210;5.160;2024-03-23T02:38:48;25.67;;;5.05;;
66523;SDS011;53350;52.210;5.160;2024-03-23T02:41:15;18.42;;;4.05;;
66523;SDS011;53350;52.210;5.160;2024-03-23T02:43:48;18.80;;;4.07;;
66523;SDS011;53350;52.210;5.160;2024-03-23T02:46:13;17.35;;;3.40;;
66523;SDS011;53350;52.210;5.160;2024-03-23T02:48:40;20.15;;;4.78;;
66523;SDS011;53350;52.210;5.160;2024-03-23T02:51:05;17.63;;;3.58;;
66523;SDS011;53350;52.210;5.160;2024-03-23T02:53:32;14.45;;;3.50;;
66523;SDS011;53350;52.210;5.160;2024-03-23T02:55:57;15.05;;;3.60;;
66523;SDS011;53350;52.210;5.160;2024-03-23T02:58:25;17.60;;;3.83;;
66523;SDS011;53350;52.210;5.160;2024-03-23T03:00:50;23.20;;;3.33;;
66523;SDS011;53350;52.210;5.160;2024-03-23T03:03:17;18.20;;;3.83;;
66523;SDS011;53350;52.210;5.160;2024-03-23T03:05:42;18.98;;;3.78;;
66523;SDS011;53350;52.210;5.160;2024-03-23T03:08:09;14.27;;;3.60;;
66523;SDS011;53350;52.210;5.160;2024-03-23T03:10:34;17.13;;;3.28;;
66523;SDS011;53350;52.210;5.160;2024-03-23T03:13:01;20.80;;;3.60;;
66523;SDS011;53350;52.210;5.160;2024-03-23T03:15:28;15.48;;;4.00;;
66523;SDS011;53350;52.210;5.160;2024-03-23T03:17:55;20.13;;;3.47;;
66523;SDS011;53350;52.210;5.160;2024-03-23T03:20:20;22.45;;;3.65;;
66523;SDS011;53350;52.210;5.160;2024-03-23T03:22:48;17.88;;;3.00;;
66523;SDS011;53350;52.210;5.160;2024-03-23T03:25:14;13.65;;;2.83;;
66523;SDS011;53350;52.210;5.160;2024-03-23T03:27:40;20.60;;;3.42;;
66523;SDS011;53350;52.210;5.160;2024-03-23T03:30:06;15.80;;;3.85;;
66523;SDS011;53350;52.210;5.160;2024-03-23T03:32:35;14.02;;;3.00;;
66523;SDS011;53350;52.210;5.160;2024-03-23T03:35:00;24.88;;;4.00;;
66523;SDS011;53350;52.210;5.160;2024-03-23T03:37:27;16.48;;;3.22;;
66523;SDS011;53350;52.210;5.160;2024-03-23T03:39:52;15.40;;;3.03;;
66523;SDS011;53350;52.210;5.160;2024-03-23T03:42:19;15.60;;;2.70;;
66523;SDS011;53350;52.210;5.160;2024-03-23T03:44:44;13.75;;;2.92;;
66523;SDS011;53350;52.210;5.160;2024-03-23T03:47:11;15.05;;;2.60;;
66523;SDS011;53350;52.210;5.160;2024-03-23T03:49:38;18.80;;;4.47;;
66523;SDS011;53350;52.210;5.160;2024-03-23T03:52:04;12.73;;;2.53;;
66523;SDS011;53350;52.210;5.160;2024-03-23T03:54:30;12.27;;;2.20;;
66523;SDS011;53350;52.210;5.160;2024-03-23T03:56:56;15.68;;;2.30;;
66523;SDS011;53350;52.210;5.160;2024-03-23T03:59:22;15.27;;;2.33;;
66523;SDS011;53350;52.210;5.160;2024-03-23T04:01:48;15.18;;;2.60;;
66523;SDS011;53350;52.210;5.160;2024-03-23T04:04:13;10.32;;;1.98;;
66523;SDS011;53350;52.210;5.160;2024-03-23T04:06:42;21.92;;;2.58;;
66523;SDS011;53350;52.210;5.160;2024-03-23T04:09:08;17.10;;;2.55;;
66523;SDS011;53350;52.210;5.160;2024-03-23T04:11:35;14.02;;;2.08;;
66523;SDS011;53350;52.210;5.160;2024-03-23T04:14:00;19.42;;;3.20;;
66523;SDS011;53350;52.210;5.160;2024-03-23T04:16:27;17.27;;;2.67;;
66523;SDS011;53350;52.210;5.160;2024-03-23T04:18:53;12.27;;;2.40;;
66523;SDS011;53350;52.210;5.160;2024-03-23T04:21:20;12.18;;;2.17;;
66523;SDS011;53350;52.210;5.160;2024-03-23T04:23:46;16.98;;;2.05;;
66523;SDS011;53350;52.210;5.160;2024-03-23T04:26:13;14.23;;;2.05;;
66523;SDS011;53350;52.210;5.160;2024-03-23T04:28:39;17.42;;;3.33;;
66523;SDS011;53350;52.210;5.160;2024-03-23T04:31:05;15.93;;;2.17;;
66523;SDS011;53350;52.210;5.160;2024-03-23T04:33:30;12.68;;;2.42;;
66523;SDS011;53350;52.210;5.160;2024-03-23T04:35:57;16.40;;;2.53;;
66523;SDS011;53350;52.210;5.160;2024-03-23T04:38:22;15.40;;;2.15;;
66523;SDS011;53350;52.210;5.160;2024-03-23T04:40:54;12.55;;;2.17;;
66523;SDS011;53350;52.210;5.160;2024-03-23T04:43:21;16.42;;;1.95;;
66523;SDS011;53350;52.210;5.160;2024-03-23T04:45:48;16.38;;;2.60;;
66523;SDS011;53350;52.210;5.160;2024-03-23T04:48:14;15.48;;;2.70;;
66523;SDS011;53350;52.210;5.160;2024-03-23T04:50:41;13.40;;;2.72;;
66523;SDS011;53350;52.210;5.160;2024-03-23T04:53:07;12.65;;;1.90;;
66523;SDS011;53350;52.210;5.160;2024-03-23T04:55:33;22.65;;;2.40;;
66523;SDS011;53350;52.210;5.160;2024-03-23T04:58:01;14.57;;;2.35;;
66523;SDS011;53350;52.210;5.160;2024-03-23T05:00:28;11.38;;;2.22;;
66523;SDS011;53350;52.210;5.160;2024-03-23T05:02:54;12.07;;;2.25;;
66523;SDS011;53350;52.210;5.160;2024-03-23T05:05:21;12.05;;;1.70;;
66523;SDS011;53350;52.210;5.160;2024-03-23T05:07:46;18.17;;;2.30;;
66523;SDS011;53350;52.210;5.160;2024-03-23T05:10:12;10.35;;;1.95;;
66523;SDS011;53350;52.210;5.160;2024-03-23T05:12:38;15.27;;;2.58;;
66523;SDS011;53350;52.210;5.160;2024-03-23T05:15:07;9.32;;;1.70;;
66523;SDS011;53350;52.210;5.160;2024-03-23T05:17:32;14.88;;;2.03;;
66523;SDS011;53350;52.210;5.160;2024-03-23T05:19:59;15.57;;;2.00;;
66523;SDS011;53350;52.210;5.160;2024-03-23T05:22:25;9.85;;;1.77;;
66523;SDS011;53350;52.210;5.160;2024-03-23T05:24:52;13.05;;;1.75;;
66523;SDS011;53350;52.210;5.160;2024-03-23T05:27:18;9.05;;;1.75;;
66523;SDS011;53350;52.210;5.160;2024-03-23T05:29:44;7.28;;;1.30;;
66523;SDS011;53350;52.210;5.160;2024-03-23T05:32:11;12.55;;;2.40;;
66523;SDS011;53350;52.210;5.160;2024-03-23T05:34:38;12.43;;;2.08;;
66523;SDS011;53350;52.210;5.160;2024-03-23T05:37:03;15.60;;;1.83;;
66523;SDS011;53350;52.210;5.160;2024-03-23T05:39:30;9.25;;;1.60;;
66523;SDS011;53350;52.210;5.160;2024-03-23T05:41:55;12.07;;;1.92;;
66523;SDS011;53350;52.210;5.160;2024-03-23T05:44:22;13.27;;;1.60;;
66523;SDS011;53350;52.210;5.160;2024-03-23T05:46:47;14.85;;;2.17;;
66523;SDS011;53350;52.210;5.160;2024-03-23T05:49:15;12.88;;;1.65;;
66523;SDS011;53350;52.210;5.160;2024-03-23T05:51:42;13.55;;;1.73;;
66523;SDS011;53350;52.210;5.160;2024-03-23T05:54:08;9.80;;;1.95;;
66523;SDS011;53350;52.210;5.160;2024-03-23T05:56:34;10.43;;;1.60;;
66523;SDS011;53350;52.210;5.160;2024-03-23T05:58:59;16.15;;;2.40;;
66523;SDS011;53350;52.210;5.160;2024-03-23T06:01:28;11.27;;;2.08;;
66523;SDS011;53350;52.210;5.160;2024-03-23T06:03:53;11.80;;;2.20;;
66523;SDS011;53350;52.210;5.160;2024-03-23T06:06:21;8.80;;;1.40;;
66523;SDS011;53350;52.210;5.160;2024-03-23T06:08:47;15.18;;;2.10;;
66523;SDS011;53350;52.210;5.160;2024-03-23T06:11:13;9.43;;;2.03;;
66523;SDS011;53350;52.210;5.160;2024-03-23T06:13:39;11.35;;;1.65;;
66523;SDS011;53350;52.210;5.160;2024-03-23T06:16:05;10.93;;;2.15;;
66523;SDS011;53350;52.210;5.160;2024-03-23T06:18:32;11.95;;;2.10;;
66523;SDS011;53350;52.210;5.160;2024-03-23T06:20:58;11.52;;;2.10;;
66523;SDS011;53350;52.210;5.160;2024-03-23T06:23:25;11.18;;;2.10;;
66523;SDS011;53350;52.210;5.160;2024-03-23T06:25:51;16.52;;;2.97;;
66523;SDS011;53350;52.210;5.160;2024-03-23T06:28:17;9.48;;;1.73;;
66523;SDS011;53350;52.210;5.160;2024-03-23T06:30:45;11.93;;;2.15;;
66523;SDS011;53350;52.210;5.160;2024-03-23T06:33:11;13.07;;;2.22;;
66523;SDS011;53350;52.210;5.160;2024-03-23T06:35:38;13.77;;;1.80;;
66523;SDS011;53350;52.210;5.160;2024-03-23T06:38:03;13.98;;;2.22;;
66523;SDS011;53350;52.210;5.160;2024-03-23T06:40:31;11.52;;;1.98;;
66523;SDS011;53350;52.210;5.160;2024-03-23T06:42:57;12.40;;;2.83;;
66523;SDS011;53350;52.210;5.160;2024-03-23T06:45:23;7.15;;;2.13;;
66523;SDS011;53350;52.210;5.160;2024-03-23T06:47:49;5.57;;;1.50;;
66523;SDS011;53350;52.210;5.160;2024-03-23T06:50:16;16.70;;;2.40;;
66523;SDS011;53350;52.210;5.160;2024-03-23T06:52:42;9.27;;;2.38;;
66523;SDS011;53350;52.210;5.160;2024-03-23T06:55:08;13.45;;;2.42;;
66523;SDS011;53350;52.210;5.160;2024-03-23T06:57:35;13.65;;;2.05;;
66523;SDS011;53350;52.210;5.160;2024-03-23T07:00:01;17.70;;;2.65;;
66523;SDS011;53350;52.210;5.160;2024-03-23T07:02:27;18.98;;;2.03;;
66523;SDS011;53350;52.210;5.160;2024-03-23T07:04:54;10.95;;;2.38;;
66523;SDS011;53350;52.210;5.160;2024-03-23T07:07:19;9.82;;;2.03;;
66523;SDS011;53350;52.210;5.160;2024-03-23T07:09:47;11.40;;;2.05;;
66523;SDS011;53350;52.210;5.160;2024-03-23T07:12:12;15.18;;;2.80;;
66523;SDS011;53350;52.210;5.160;2024-03-23T07:14:40;13.18;;;2.38;;
66523;SDS011;53350;52.210;5.160;2024-03-23T07:17:06;7.30;;;1.80;;
66523;SDS011;53350;52.210;5.160;2024-03-23T07:19:32;17.33;;;2.33;;
66523;SDS011;53350;52.210;5.160;2024-03-23T07:21:58;14.15;;;2.45;;
66523;SDS011;53350;52.210;5.160;2024-03-23T07:24:24;10.80;;;2.10;;
66523;SDS011;53350;52.210;5.160;2024-03-23T07:26:50;6.53;;;1.88;;
66523;SDS011;53350;52.210;5.160;2024-03-23T07:29:19;11.10;;;2.08;;
66523;SDS011;53350;52.210;5.160;2024-03-23T07:31:46;7.72;;;1.70;;
66523;SDS011;53350;52.210;5.160;2024-03-23T07:34:12;8.85;;;1.90;;
66523;SDS011;53350;52.210;5.160;2024-03-23T07:36:38;6.75;;;1.70;;
66523;SDS011;53350;52.210;5.160;2024-03-23T07:39:05;11.07;;;1.85;;
66523;SDS011;53350;52.210;5.160;2024-03-23T07:41:30;7.45;;;2.15;;
66523;SDS011;53350;52.210;5.160;2024-03-23T07:43:56;10.60;;;1.60;;
66523;SDS011;53350;52.210;5.160;2024-03-23T07:46:22;8.82;;;1.55;;
66523;SDS011;53350;52.210;5.160;2024-03-23T07:48:51;7.65;;;1.90;;
66523;SDS011;53350;52.210;5.160;2024-03-23T07:51:17;14.20;;;2.42;;
66523;SDS011;53350;52.210;5.160;2024-03-23T07:53:44;8.43;;;2.28;;
66523;SDS011;53350;52.210;5.160;2024-03-23T07:56:11;11.98;;;2.10;;
66523;SDS011;53350;52.210;5.160;2024-03-23T07:58:37;17.90;;;2.55;;
66523;SDS011;53350;52.210;5.160;2024-03-23T08:01:03;12.45;;;2.13;;
66523;SDS011;53350;52.210;5.160;2024-03-23T08:03:32;11.18;;;1.52;;
66523;SDS011;53350;52.210;5.160;2024-03-23T08:05:59;10.07;;;1.92;;
66523;SDS011;53350;52.210;5.160;2024-03-23T08:08:32;5.32;;;1.48;;
66523;SDS011;53350;52.210;5.160;2024-03-23T08:10:58;5.82;;;1.50;;
66523;SDS011;53350;52.210;5.160;2024-03-23T08:13:24;15.38;;;1.63;;
66523;SDS011;53350;52.210;5.160;2024-03-23T08:15:50;8.48;;;1.45;;
66523;SDS011;53350;52.210;5.160;2024-03-23T08:18:16;10.38;;;1.42;;
66523;SDS011;53350;52.210;5.160;2024-03-23T08:20:41;6.43;;;1.73;;
66523;SDS011;53350;52.210;5.160;2024-03-23T08:23:09;6.53;;;1.55;;
66523;SDS011;53350;52.210;5.160;2024-03-23T08:25:35;11.23;;;2.25;;
66523;SDS011;53350;52.210;5.160;2024-03-23T08:28:01;5.40;;;1.33;;
66523;SDS011;53350;52.210;5.160;2024-03-23T08:30:27;12.52;;;2.38;;
66523;SDS011;53350;52.210;5.160;2024-03-23T08:32:54;7.68;;;1.45;;
66523;SDS011;53350;52.210;5.160;2024-03-23T08:35:19;15.30;;;2.22;;
66523;SDS011;53350;52.210;5.160;2024-03-23T08:37:46;8.55;;;1.55;;
66523;SDS011;53350;52.210;5.160;2024-03-23T08:40:13;4.47;;;1.27;;
66523;SDS011;53350;52.210;5.160;2024-03-23T08:42:39;9.65;;;1.33;;
66523;SDS011;53350;52.210;5.160;2024-03-23T08:45:05;7.43;;;1.20;;
66523;SDS011;53350;52.210;5.160;2024-03-23T08:47:33;11.65;;;1.73;;
66523;SDS011;53350;52.210;5.160;2024-03-23T08:49:59;11.40;;;1.67;;
66523;SDS011;53350;52.210;5.160;2024-03-23T08:52:26;11.57;;;1.98;;
66523;SDS011;53350;52.210;5.160;2024-03-23T08:54:53;9.82;;;1.30;;
66523;SDS011;53350;52.210;5.160;2024-03-23T08:57:22;7.70;;;1.63;;
66523;SDS011;53350;52.210;5.160;2024-03-23T08:59:47;8.05;;;1.55;;
66523;SDS011;53350;52.210;5.160;2024-03-23T09:02:14;7.18;;;1.23;;
66523;SDS011;53350;52.210;5.160;2024-03-23T09:04:40;13.60;;;1.95;;
66523;SDS011;53350;52.210;5.160;2024-03-23T09:07:06;5.20;;;1.10;;
66523;SDS011;53350;52.210;5.160;2024-03-23T09:09:32;7.65;;;1.67;;
66523;SDS011;53350;52.210;5.160;2024-03-23T09:11:58;6.38;;;1.90;;
66523;SDS011;53350;52.210;5.160;2024-03-23T09:14:25;10.45;;;1.80;;
66523;SDS011;53350;52.210;5.160;2024-03-23T09:16:51;16.20;;;1.90;;
66523;SDS011;53350;52.210;5.160;2024-03-23T09:19:17;8.88;;;1.88;;
66523;SDS011;53350;52.210;5.160;2024-03-23T09:21:44;7.53;;;1.17;;
66523;SDS011;53350;52.210;5.160;2024-03-23T09:24:09;9.80;;;1.38;;
66523;SDS011;53350;52.210;5.160;2024-03-23T09:26:35;7.38;;;1.67;;
66523;SDS011;53350;52.210;5.160;2024-03-23T09:29:01;8.90;;;2.00;;
66523;SDS011;53350;52.210;5.160;2024-03-23T09:31:30;8.07;;;2.13;;
66523;SDS011;53350;52.210;5.160;2024-03-23T09:33:56;9.43;;;1.80;;
66523;SDS011;53350;52.210;5.160;2024-03-23T09:36:23;6.78;;;1.50;;
66523;SDS011;53350;52.210;5.160;2024-03-23T09:38:48;12.27;;;1.77;;
66523;SDS011;53350;52.210;5.160;2024-03-23T09:41:15;15.18;;;2.80;;
66523;SDS011;53350;52.210;5.160;2024-03-23T09:43:40;9.80;;;1.60;;
66523;SDS011;53350;52.210;5.160;2024-03-23T09:46:07;9.50;;;1.48;;
66523;SDS011;53350;52.210;5.160;2024-03-23T09:48:34;11.57;;;1.77;;
66523;SDS011;53350;52.210;5.160;2024-03-23T09:51:02;12.75;;;1.95;;
66523;SDS011;53350;52.210;5.160;2024-03-23T09:53:28;14.52;;;2.60;;
66523;SDS011;53350;52.210;5.160;2024-03-23T09:55:54;28.85;;;3.17;;
66523;SDS011;53350;52.210;5.160;2024-03-23T09:58:20;27.52;;;3.47;;
66523;SDS011;53350;52.210;5.160;2024-03-23T10:00:49;9.45;;;1.77;;
66523;SDS011;53350;52.210;5.160;2024-03-23T10:03:15;13.95;;;1.92;;
66523;SDS011;53350;52.210;5.160;2024-03-23T10:05:42;22.33;;;2.58;;
66523;SDS011;53350;52.210;5.160;2024-03-23T10:08:17;22.17;;;3.55;;
66523;SDS011;53350;52.210;5.160;2024-03-23T10:10:44;51.70;;;5.75;;
66523;SDS011;53350;52.210;5.160;2024-03-23T10:13:11;10.65;;;1.85;;
66523;SDS011;53350;52.210;5.160;2024-03-23T10:15:38;6.73;;;1.37;;
66523;SDS011;53350;52.210;5.160;2024-03-23T10:18:04;9.80;;;1.92;;
66523;SDS011;53350;52.210;5.160;2024-03-23T10:20:47;34.63;;;4.55;;
66523;SDS011;53350;52.210;5.160;2024-03-23T10:23:16;22.08;;;2.83;;
66523;SDS011;53350;52.210;5.160;2024-03-23T10:25:43;8.13;;;1.95;;
66523;SDS011;53350;52.210;5.160;2024-03-23T10:28:10;11.65;;;1.50;;
66523;SDS011;53350;52.210;5.160;2024-03-23T10:30:36;6.53;;;1.73;;
66523;SDS011;53350;52.210;5.160;2024-03-23T10:33:07;6.60;;;1.67;;
66523;SDS011;53350;52.210;5.160;2024-03-23T10:35:33;6.70;;;1.40;;
66523;SDS011;53350;52.210;5.160;2024-03-23T10:38:01;13.93;;;1.60;;
66523;SDS011;53350;52.210;5.160;2024-03-23T10:40:29;9.13;;;1.05;;
66523;SDS011;53350;52.210;5.160;2024-03-23T10:42:57;5.97;;;1.00;;
66523;SDS011;53350;52.210;5.160;2024-03-23T10:45:23;12.38;;;1.35;;
66523;SDS011;53350;52.210;5.160;2024-03-23T10:47:50;13.45;;;1.83;;
66523;SDS011;53350;52.210;5.160;2024-03-23T10:50:17;8.73;;;1.65;;
66523;SDS011;53350;52.210;5.160;2024-03-23T10:52:45;9.55;;;1.92;;
66523;SDS011;53350;52.210;5.160;2024-03-23T10:55:13;7.28;;;1.50;;
66523;SDS011;53350;52.210;5.160;2024-03-23T10:57:42;8.93;;;1.55;;
66523;SDS011;53350;52.210;5.160;2024-03-23T11:02:38;10.63;;;1.53;;
66523;SDS011;53350;52.210;5.160;2024-03-23T11:05:10;10.18;;;1.50;;
66523;SDS011;53350;52.210;5.160;2024-03-23T11:07:54;10.38;;;2.03;;
66523;SDS011;53350;52.210;5.160;2024-03-23T11:10:28;7.72;;;1.58;;
66523;SDS011;53350;52.210;5.160;2024-03-23T11:12:55;9.20;;;1.23;;
66523;SDS011;53350;52.210;5.160;2024-03-23T11:15:21;9.52;;;2.00;;
66523;SDS011;53350;52.210;5.160;2024-03-23T11:18:03;6.05;;;1.48;;
66523;SDS011;53350;52.210;5.160;2024-03-23T11:20:33;10.88;;;1.17;;
66523;SDS011;53350;52.210;5.160;2024-03-23T11:23:00;8.13;;;1.45;;
66523;SDS011;53350;52.210;5.160;2024-03-23T11:25:28;12.02;;;2.55;;
66523;SDS011;53350;52.210;5.160;2024-03-23T11:27:55;5.68;;;1.20;;
66523;SDS011;53350;52.210;5.160;2024-03-23T11:30:22;12.30;;;1.58;;
66523;SDS011;53350;52.210;5.160;2024-03-23T11:32:50;7.45;;;1.58;;
66523;SDS011;53350;52.210;5.160;2024-03-23T11:35:26;9.88;;;1.58;;
66523;SDS011;53350;52.210;5.160;2024-03-23T11:38:04;9.80;;;1.77;;
66523;SDS011;53350;52.210;5.160;2024-03-23T11:40:31;7.95;;;1.33;;
66523;SDS011;53350;52.210;5.160;2024-03-23T11:42:59;8.68;;;1.70;;
66523;SDS011;53350;52.210;5.160;2024-03-23T11:45:25;12.07;;;1.80;;
66523;SDS011;53350;52.210;5.160;2024-03-23T11:48:02;15.35;;;2.40;;
66523;SDS011;53350;52.210;5.160;2024-03-23T11:50:31;12.20;;;1.75;;
66523;SDS011;53350;52.210;5.160;2024-03-23T11:53:07;4.78;;;1.25;;
66523;SDS011;53350;52.210;5.160;2024-03-23T11:55:43;9.77;;;2.55;;
66523;SDS011;53350;52.210;5.160;2024-03-23T11:58:13;15.13;;;2.13;;
66523;SDS011;53350;52.210;5.160;2024-03-23T12:00:39;7.57;;;1.15;;
66523;SDS011;53350;52.210;5.160;2024-03-23T12:03:06;11.88;;;1.67;;
66523;SDS011;53350;52.210;5.160;2024-03-23T12:05:33;10.18;;;1.38;;
66523;SDS011;53350;52.210;5.160;2024-03-23T12:08:15;6.15;;;0.95;;
66523;SDS011;53350;52.210;5.160;2024-03-23T12:10:47;9.93;;;1.70;;
66523;SDS011;53350;52.210;5.160;2024-03-23T12:13:15;14.25;;;2.40;;
66523;SDS011;53350;52.210;5.160;2024-03-23T12:15:44;12.43;;;1.38;;
66523;SDS011;53350;52.210;5.160;2024-03-23T12:18:12;11.67;;;1.83;;
66523;SDS011;53350;52.210;5.160;2024-03-23T12:20:38;10.93;;;1.80;;
66523;SDS011;53350;52.210;5.160;2024-03-23T12:23:05;6.82;;;1.23;;
66523;SDS011;53350;52.210;5.160;2024-03-23T12:25:32;8.45;;;1.77;;
66523;SDS011;53350;52.210;5.160;2024-03-23T12:28:00;20.88;;;2.38;;
66523;SDS011;53350;52.210;5.160;2024-03-23T12:30:25;7.75;;;1.50;;
66523;SDS011;53350;52.210;5.160;2024-03-23T12:32:52;5.70;;;1.27;;
66523;SDS011;53350;52.210;5.160;2024-03-23T12:35:17;8.68;;;1.33;;
66523;SDS011;53350;52.210;5.160;2024-03-23T12:37:44;6.90;;;1.50;;
66523;SDS011;53350;52.210;5.160;2024-03-23T12:40:10;15.77;;;1.95;;
66523;SDS011;53350;52.210;5.160;2024-03-23T12:42:36;9.60;;;1.50;;
66523;SDS011;53350;52.210;5.160;2024-03-23T12:45:04;8.10;;;1.38;;
66523;SDS011;53350;52.210;5.160;2024-03-23T12:47:31;9.57;;;1.98;;
66523;SDS011;53350;52.210;5.160;2024-03-23T12:49:57;8.50;;;1.88;;
66523;SDS011;53350;52.210;5.160;2024-03-23T12:52:23;6.30;;;1.15;;
66523;SDS011;53350;52.210;5.160;2024-03-23T12:54:53;10.18;;;1.38;;
66523;SDS011;53350;52.210;5.160;2024-03-23T12:57:21;3.08;;;0.95;;
66523;SDS011;53350;52.210;5.160;2024-03-23T12:59:47;10.85;;;1.55;;
66523;SDS011;53350;52.210;5.160;2024-03-23T13:02:17;7.97;;;1.45;;
66523;SDS011;53350;52.210;5.160;2024-03-23T13:04:44;9.75;;;1.90;;
66523;SDS011;53350;52.210;5.160;2024-03-23T13:07:11;7.07;;;1.27;;
66523;SDS011;53350;52.210;5.160;2024-03-23T13:09:37;5.60;;;1.27;;
66523;SDS011;53350;52.210;5.160;2024-03-23T13:12:04;8.73;;;1.30;;
66523;SDS011;53350;52.210;5.160;2024-03-23T13:14:30;7.05;;;1.40;;
66523;SDS011;53350;52.210;5.160;2024-03-23T13:16:57;8.30;;;1.75;;
66523;SDS011;53350;52.210;5.160;2024-03-23T13:19:24;9.10;;;1.48;;
66523;SDS011;53350;52.210;5.160;2024-03-23T13:21:52;7.18;;;1.27;;
66523;SDS011;53350;52.210;5.160;2024-03-23T13:24:21;9.05;;;1.92;;
66523;SDS011;53350;52.210;5.160;2024-03-23T13:26:49;10.73;;;1.50;;
66523;SDS011;53350;52.210;5.160;2024-03-23T13:29:15;9.82;;;1.73;;
66523;SDS011;53350;52.210;5.160;2024-03-23T13:31:41;8.63;;;1.75;;
66523;SDS011;53350;52.210;5.160;2024-03-23T13:34:07;8.95;;;1.58;;
66523;SDS011;53350;52.210;5.160;2024-03-23T13:36:35;7.63;;;1.48;;
66523;SDS011;53350;52.210;5.160;2024-03-23T13:39:01;12.65;;;2.45;;
66523;SDS011;53350;52.210;5.160;2024-03-23T13:41:30;7.95;;;1.33;;
66523;SDS011;53350;52.210;5.160;2024-03-23T13:43:56;14.30;;;2.40;;
66523;SDS011;53350;52.210;5.160;2024-03-23T13:46:22;8.23;;;1.38;;
66523;SDS011;53350;52.210;5.160;2024-03-23T13:48:48;8.75;;;1.55;;
66523;SDS011;53350;52.210;5.160;2024-03-23T13:51:15;5.90;;;0.93;;
66523;SDS011;53350;52.210;5.160;2024-03-23T13:53:49;6.57;;;1.48;;
66523;SDS011;53350;52.210;5.160;2024-03-23T13:56:16;5.25;;;1.00;;
66523;SDS011;53350;52.210;5.160;2024-03-23T13:58:41;6.45;;;1.17;;
66523;SDS011;53350;52.210;5.160;2024-03-23T14:01:11;7.43;;;1.73;;
66523;SDS011;53350;52.210;5.160;2024-03-23T14:03:37;7.68;;;1.02;;
66523;SDS011;53350;52.210;5.160;2024-03-23T14:06:04;7.43;;;1.10;;
66523;SDS011;53350;52.210;5.160;2024-03-23T14:08:32;3.17;;;1.10;;
66523;SDS011;53350;52.210;5.160;2024-03-23T14:11:03;11.93;;;1.38;;
66523;SDS011;53350;52.210;5.160;2024-03-23T14:13:29;4.68;;;0.80;;
66523;SDS011;53350;52.210;5.160;2024-03-23T14:15:56;5.50;;;1.10;;
66523;SDS011;53350;52.210;5.160;2024-03-23T14:18:22;4.80;;;1.10;;
66523;SDS011;53350;52.210;5.160;2024-03-23T14:20:48;9.10;;;1.40;;
66523;SDS011;53350;52.210;5.160;2024-03-23T14:23:14;5.78;;;1.55;;
66523;SDS011;53350;52.210;5.160;2024-03-23T14:25:41;6.90;;;1.10;;
66523;SDS011;53350;52.210;5.160;2024-03-23T14:28:08;7.13;;;1.10;;
66523;SDS011;53350;52.210;5.160;2024-03-23T14:30:39;8.45;;;1.65;;
66523;SDS011;53350;52.210;5.160;2024-03-23T14:33:05;5.43;;;1.00;;
66523;SDS011;53350;52.210;5.160;2024-03-23T14:35:32;9.15;;;1.48;;
66523;SDS011;53350;52.210;5.160;2024-03-23T14:37:58;4.65;;;1.25;;
66523;SDS011;53350;52.210;5.160;2024-03-23T14:40:24;14.77;;;1.40;;
66523;SDS011;53350;52.210;5.160;2024-03-23T14:42:52;9.82;;;1.42;;
66523;SDS011;53350;52.210;5.160;2024-03-23T14:45:20;7.72;;;1.33;;
66523;SDS011;53350;52.210;5.160;2024-03-23T14:47:46;2.20;;;0.63;;
66523;SDS011;53350;52.210;5.160;2024-03-23T14:50:13;5.22;;;1.02;;
66523;SDS011;53350;52.210;5.160;2024-03-23T14:52:40;5.55;;;1.35;;
66523;SDS011;53350;52.210;5.160;2024-03-23T14:55:08;5.65;;;1.20;;
66523;SDS011;53350;52.210;5.160;2024-03-23T14:57:34;7.32;;;2.17;;
66523;SDS011;53350;52.210;5.160;2024-03-23T15:00:00;8.05;;;1.33;;
66523;SDS011;53350;52.210;5.160;2024-03-23T15:02:27;10.23;;;1.38;;
66523;SDS011;53350;52.210;5.160;2024-03-23T15:04:55;10.27;;;1.27;;
66523;SDS011;53350;52.210;5.160;2024-03-23T15:07:21;12.30;;;1.40;;
66523;SDS011;53350;52.210;5.160;2024-03-23T15:09:47;4.80;;;0.95;;
66523;SDS011;53350;52.210;5.160;2024-03-23T15:12:13;7.13;;;1.33;;
66523;SDS011;53350;52.210;5.160;2024-03-23T15:14:40;11.88;;;1.48;;
66523;SDS011;53350;52.210;5.160;2024-03-23T15:17:05;5.32;;;1.05;;
66523;SDS011;53350;52.210;5.160;2024-03-23T15:19:35;11.68;;;1.75;;
66523;SDS011;53350;52.210;5.160;2024-03-23T15:22:02;6.05;;;1.00;;
66523;SDS011;53350;52.210;5.160;2024-03-23T15:24:28;7.22;;;1.25;;
66523;SDS011;53350;52.210;5.160;2024-03-23T15:26:56;8.38;;;1.40;;
66523;SDS011;53350;52.210;5.160;2024-03-23T15:29:22;8.05;;;1.83;;
66523;SDS011;53350;52.210;5.160;2024-03-23T15:31:49;8.35;;;1.58;;
66523;SDS011;53350;52.210;5.160;2024-03-23T15:36:45;10.15;;;1.58;;
66523;SDS011;53350;52.210;5.160;2024-03-23T15:39:11;12.57;;;2.10;;